sensor_id;sensor_type;location;lat;lon;timestamp;P1;durP1;ratioP1;P2;durP2;ratioP2
52534;SDS011;38443;53.164;5.802;2023-08-24T00:00:39;9.20;;;5.57;;
52534;SDS011;38443;53.164;5.802;2023-08-24T00:03:05;11.98;;;6.43;;
52534;SDS011;38443;53.164;5.802;2023-08-24T00:05:35;11.13;;;5.97;;
52534;SDS011;38443;53.164;5.802;2023-08-24T00:08:05;9.68;;;5.40;;
52534;SDS011;38443;53.164;5.802;2023-08-24T00:10:32;7.65;;;4.88;;
52534;SDS011;38443;53.164;5.802;2023-08-24T00:12:58;10.05;;;5.82;;
52534;SDS011;38443;53.164;5.802;2023-08-24T00:15:23;7.82;;;5.75;;
52534;SDS011;38443;53.164;5.802;2023-08-24T00:17:49;7.65;;;5.03;;
52534;SDS011;38443;53.164;5.802;2023-08-24T00:20:14;6.55;;;4.55;;
52534;SDS011;38443;53.164;5.802;2023-08-24T00:22:40;8.73;;;5.55;;
52534;SDS011;38443;53.164;5.802;2023-08-24T00:25:06;7.50;;;4.85;;
52534;SDS011;38443;53.164;5.802;2023-08-24T00:27:32;9.23;;;4.40;;
52534;SDS011;38443;53.164;5.802;2023-08-24T00:29:58;9.27;;;5.22;;
52534;SDS011;38443;53.164;5.802;2023-08-24T00:32:23;7.93;;;5.75;;
52534;SDS011;38443;53.164;5.802;2023-08-24T00:34:49;8.82;;;5.68;;
52534;SDS011;38443;53.164;5.802;2023-08-24T00:37:14;9.98;;;5.60;;
52534;SDS011;38443;53.164;5.802;2023-08-24T00:39:39;9.73;;;5.78;;
52534;SDS011;38443;53.164;5.802;2023-08-24T00:42:05;9.82;;;6.13;;
52534;SDS011;38443;53.164;5.802;2023-08-24T00:44:31;8.70;;;6.13;;
52534;SDS011;38443;53.164;5.802;2023-08-24T00:46:56;8.45;;;5.82;;
52534;SDS011;38443;53.164;5.802;2023-08-24T00:49:23;9.95;;;5.93;;
52534;SDS011;38443;53.164;5.802;2023-08-24T00:51:49;8.60;;;5.90;;
52534;SDS011;38443;53.164;5.802;2023-08-24T00:54:16;10.05;;;6.15;;
52534;SDS011;38443;53.164;5.802;2023-08-24T00:56:42;9.05;;;6.13;;
52534;SDS011;38443;53.164;5.802;2023-08-24T00:59:07;8.13;;;5.25;;
52534;SDS011;38443;53.164;5.802;2023-08-24T01:01:32;8.18;;;5.45;;
52534;SDS011;38443;53.164;5.802;2023-08-24T01:03:58;8.10;;;5.60;;
52534;SDS011;38443;53.164;5.802;2023-08-24T01:06:24;7.78;;;5.28;;
52534;SDS011;38443;53.164;5.802;2023-08-24T01:08:49;8.25;;;4.97;;
52534;SDS011;38443;53.164;5.802;2023-08-24T01:11:39;10.48;;;5.70;;
52534;SDS011;38443;53.164;5.802;2023-08-24T01:16:32;6.80;;;4.60;;
52534;SDS011;38443;53.164;5.802;2023-08-24T01:19:01;8.82;;;5.68;;
52534;SDS011;38443;53.164;5.802;2023-08-24T01:21:30;8.95;;;5.25;;
52534;SDS011;38443;53.164;5.802;2023-08-24T01:26:51;8.05;;;5.13;;
52534;SDS011;38443;53.164;5.802;2023-08-24T01:29:20;10.88;;;6.18;;
52534;SDS011;38443;53.164;5.802;2023-08-24T01:31:47;9.77;;;5.75;;
52534;SDS011;38443;53.164;5.802;2023-08-24T01:34:14;9.75;;;5.70;;
52534;SDS011;38443;53.164;5.802;2023-08-24T01:36:39;11.27;;;6.70;;
52534;SDS011;38443;53.164;5.802;2023-08-24T01:39:07;10.82;;;6.45;;
52534;SDS011;38443;53.164;5.802;2023-08-24T01:41:39;9.90;;;6.68;;
52534;SDS011;38443;53.164;5.802;2023-08-24T01:44:09;10.35;;;6.60;;
52534;SDS011;38443;53.164;5.802;2023-08-24T01:46:38;9.68;;;6.20;;
52534;SDS011;38443;53.164;5.802;2023-08-24T01:49:05;11.38;;;6.43;;
52534;SDS011;38443;53.164;5.802;2023-08-24T01:51:33;11.95;;;6.65;;
52534;SDS011;38443;53.164;5.802;2023-08-24T01:53:59;15.02;;;6.78;;
52534;SDS011;38443;53.164;5.802;2023-08-24T01:56:25;9.02;;;5.70;;
52534;SDS011;38443;53.164;5.802;2023-08-24T01:58:51;9.80;;;5.90;;
52534;SDS011;38443;53.164;5.802;2023-08-24T02:01:16;9.80;;;5.95;;
52534;SDS011;38443;53.164;5.802;2023-08-24T02:03:42;13.52;;;6.13;;
52534;SDS011;38443;53.164;5.802;2023-08-24T02:06:07;11.48;;;6.30;;
52534;SDS011;38443;53.164;5.802;2023-08-24T02:08:33;11.02;;;6.20;;
52534;SDS011;38443;53.164;5.802;2023-08-24T02:10:59;8.45;;;5.85;;
52534;SDS011;38443;53.164;5.802;2023-08-24T02:13:24;9.90;;;5.47;;
52534;SDS011;38443;53.164;5.802;2023-08-24T02:15:49;9.98;;;5.65;;
52534;SDS011;38443;53.164;5.802;2023-08-24T02:18:15;8.52;;;5.57;;
52534;SDS011;38443;53.164;5.802;2023-08-24T02:20:40;9.55;;;6.03;;
52534;SDS011;38443;53.164;5.802;2023-08-24T02:23:06;8.82;;;5.55;;
52534;SDS011;38443;53.164;5.802;2023-08-24T02:25:31;9.05;;;5.45;;
52534;SDS011;38443;53.164;5.802;2023-08-24T02:27:57;11.85;;;5.78;;
52534;SDS011;38443;53.164;5.802;2023-08-24T02:30:22;7.95;;;5.40;;
52534;SDS011;38443;53.164;5.802;2023-08-24T02:32:47;9.60;;;6.28;;
52534;SDS011;38443;53.164;5.802;2023-08-24T02:35:13;9.98;;;6.78;;
52534;SDS011;38443;53.164;5.802;2023-08-24T02:37:38;9.05;;;5.95;;
52534;SDS011;38443;53.164;5.802;2023-08-24T02:40:04;10.65;;;6.00;;
52534;SDS011;38443;53.164;5.802;2023-08-24T02:42:31;13.13;;;6.05;;
52534;SDS011;38443;53.164;5.802;2023-08-24T02:44:57;10.68;;;6.15;;
52534;SDS011;38443;53.164;5.802;2023-08-24T02:47:23;8.88;;;5.72;;
52534;SDS011;38443;53.164;5.802;2023-08-24T02:49:48;10.43;;;6.57;;
52534;SDS011;38443;53.164;5.802;2023-08-24T02:52:14;10.88;;;6.60;;
52534;SDS011;38443;53.164;5.802;2023-08-24T02:54:39;12.23;;;6.47;;
52534;SDS011;38443;53.164;5.802;2023-08-24T02:57:04;10.10;;;5.82;;
52534;SDS011;38443;53.164;5.802;2023-08-24T02:59:30;12.05;;;6.20;;
52534;SDS011;38443;53.164;5.802;2023-08-24T03:01:55;10.05;;;5.85;;
52534;SDS011;38443;53.164;5.802;2023-08-24T03:04:20;10.50;;;6.80;;
52534;SDS011;38443;53.164;5.802;2023-08-24T03:06:46;11.77;;;6.30;;
52534;SDS011;38443;53.164;5.802;2023-08-24T03:09:11;13.77;;;6.75;;
52534;SDS011;38443;53.164;5.802;2023-08-24T03:11:37;12.75;;;7.07;;
52534;SDS011;38443;53.164;5.802;2023-08-24T03:14:03;14.23;;;6.85;;
52534;SDS011;38443;53.164;5.802;2023-08-24T03:16:29;15.65;;;7.40;;
52534;SDS011;38443;53.164;5.802;2023-08-24T03:18:54;13.27;;;7.45;;
52534;SDS011;38443;53.164;5.802;2023-08-24T03:21:19;8.98;;;6.90;;
52534;SDS011;38443;53.164;5.802;2023-08-24T03:23:45;14.25;;;6.57;;
52534;SDS011;38443;53.164;5.802;2023-08-24T03:26:10;13.15;;;7.25;;
52534;SDS011;38443;53.164;5.802;2023-08-24T03:28:36;11.13;;;7.10;;
52534;SDS011;38443;53.164;5.802;2023-08-24T03:31:02;11.57;;;6.85;;
52534;SDS011;38443;53.164;5.802;2023-08-24T03:33:27;10.98;;;7.13;;
52534;SDS011;38443;53.164;5.802;2023-08-24T03:35:53;12.93;;;6.93;;
52534;SDS011;38443;53.164;5.802;2023-08-24T03:38:18;9.65;;;6.78;;
52534;SDS011;38443;53.164;5.802;2023-08-24T03:40:44;10.65;;;6.88;;
52534;SDS011;38443;53.164;5.802;2023-08-24T03:43:09;13.63;;;6.88;;
52534;SDS011;38443;53.164;5.802;2023-08-24T03:45:35;12.68;;;7.20;;
52534;SDS011;38443;53.164;5.802;2023-08-24T03:48:00;12.90;;;7.50;;
52534;SDS011;38443;53.164;5.802;2023-08-24T03:50:25;13.45;;;7.10;;
52534;SDS011;38443;53.164;5.802;2023-08-24T03:52:51;14.02;;;7.22;;
52534;SDS011;38443;53.164;5.802;2023-08-24T03:55:17;11.68;;;6.70;;
52534;SDS011;38443;53.164;5.802;2023-08-24T03:57:42;13.27;;;7.07;;
52534;SDS011;38443;53.164;5.802;2023-08-24T04:00:08;10.95;;;6.82;;
52534;SDS011;38443;53.164;5.802;2023-08-24T04:02:38;13.48;;;6.93;;
52534;SDS011;38443;53.164;5.802;2023-08-24T04:05:04;11.05;;;7.57;;
52534;SDS011;38443;53.164;5.802;2023-08-24T04:07:30;11.88;;;6.65;;
52534;SDS011;38443;53.164;5.802;2023-08-24T04:09:56;14.52;;;8.18;;
52534;SDS011;38443;53.164;5.802;2023-08-24T04:12:21;13.00;;;7.03;;
52534;SDS011;38443;53.164;5.802;2023-08-24T04:14:47;9.77;;;7.00;;
52534;SDS011;38443;53.164;5.802;2023-08-24T04:17:12;12.82;;;7.80;;
52534;SDS011;38443;53.164;5.802;2023-08-24T04:19:38;12.70;;;6.65;;
52534;SDS011;38443;53.164;5.802;2023-08-24T04:22:04;13.10;;;7.45;;
52534;SDS011;38443;53.164;5.802;2023-08-24T04:24:29;12.25;;;7.47;;
52534;SDS011;38443;53.164;5.802;2023-08-24T04:26:54;10.25;;;6.50;;
52534;SDS011;38443;53.164;5.802;2023-08-24T04:29:20;11.30;;;6.55;;
52534;SDS011;38443;53.164;5.802;2023-08-24T04:31:45;12.45;;;7.25;;
52534;SDS011;38443;53.164;5.802;2023-08-24T04:34:10;11.85;;;7.57;;
52534;SDS011;38443;53.164;5.802;2023-08-24T04:36:36;11.15;;;6.15;;
52534;SDS011;38443;53.164;5.802;2023-08-24T04:39:02;11.73;;;7.25;;
52534;SDS011;38443;53.164;5.802;2023-08-24T04:41:27;11.25;;;7.85;;
52534;SDS011;38443;53.164;5.802;2023-08-24T04:43:52;10.15;;;6.50;;
52534;SDS011;38443;53.164;5.802;2023-08-24T04:46:19;12.13;;;6.32;;
52534;SDS011;38443;53.164;5.802;2023-08-24T04:48:45;12.07;;;6.47;;
52534;SDS011;38443;53.164;5.802;2023-08-24T04:51:10;12.45;;;7.25;;
52534;SDS011;38443;53.164;5.802;2023-08-24T04:53:35;10.43;;;6.65;;
52534;SDS011;38443;53.164;5.802;2023-08-24T04:56:01;12.32;;;7.32;;
52534;SDS011;38443;53.164;5.802;2023-08-24T04:58:26;9.02;;;6.63;;
52534;SDS011;38443;53.164;5.802;2023-08-24T05:00:51;11.77;;;6.78;;
52534;SDS011;38443;53.164;5.802;2023-08-24T05:03:17;13.80;;;7.60;;
52534;SDS011;38443;53.164;5.802;2023-08-24T05:05:42;11.75;;;6.60;;
52534;SDS011;38443;53.164;5.802;2023-08-24T05:08:07;12.20;;;7.35;;
52534;SDS011;38443;53.164;5.802;2023-08-24T05:10:36;13.00;;;6.78;;
52534;SDS011;38443;53.164;5.802;2023-08-24T05:13:02;9.43;;;6.63;;
52534;SDS011;38443;53.164;5.802;2023-08-24T05:15:28;12.32;;;6.95;;
52534;SDS011;38443;53.164;5.802;2023-08-24T05:17:53;12.40;;;6.53;;
52534;SDS011;38443;53.164;5.802;2023-08-24T05:20:21;16.40;;;7.00;;
52534;SDS011;38443;53.164;5.802;2023-08-24T05:22:47;11.70;;;6.55;;
52534;SDS011;38443;53.164;5.802;2023-08-24T05:25:13;10.32;;;6.60;;
52534;SDS011;38443;53.164;5.802;2023-08-24T05:27:39;9.80;;;6.10;;
52534;SDS011;38443;53.164;5.802;2023-08-24T05:30:04;15.95;;;7.00;;
52534;SDS011;38443;53.164;5.802;2023-08-24T05:32:31;13.05;;;6.75;;
52534;SDS011;38443;53.164;5.802;2023-08-24T05:34:56;9.90;;;6.20;;
52534;SDS011;38443;53.164;5.802;2023-08-24T05:37:21;16.10;;;7.30;;
52534;SDS011;38443;53.164;5.802;2023-08-24T05:39:47;11.65;;;6.82;;
52534;SDS011;38443;53.164;5.802;2023-08-24T05:42:12;13.90;;;6.40;;
52534;SDS011;38443;53.164;5.802;2023-08-24T05:44:38;12.68;;;6.80;;
52534;SDS011;38443;53.164;5.802;2023-08-24T05:47:03;11.38;;;6.03;;
52534;SDS011;38443;53.164;5.802;2023-08-24T05:49:28;12.00;;;6.40;;
52534;SDS011;38443;53.164;5.802;2023-08-24T05:51:54;10.98;;;6.38;;
52534;SDS011;38443;53.164;5.802;2023-08-24T05:54:19;13.70;;;7.25;;
52534;SDS011;38443;53.164;5.802;2023-08-24T05:56:48;9.85;;;6.45;;
52534;SDS011;38443;53.164;5.802;2023-08-24T05:59:13;10.57;;;6.60;;
52534;SDS011;38443;53.164;5.802;2023-08-24T06:01:39;11.82;;;6.70;;
52534;SDS011;38443;53.164;5.802;2023-08-24T06:04:06;10.38;;;6.85;;
52534;SDS011;38443;53.164;5.802;2023-08-24T06:06:35;10.48;;;6.95;;
52534;SDS011;38443;53.164;5.802;2023-08-24T06:09:01;10.85;;;6.90;;
52534;SDS011;38443;53.164;5.802;2023-08-24T06:11:29;13.02;;;6.80;;
52534;SDS011;38443;53.164;5.802;2023-08-24T06:13:55;13.52;;;6.35;;
52534;SDS011;38443;53.164;5.802;2023-08-24T06:16:20;10.75;;;6.68;;
52534;SDS011;38443;53.164;5.802;2023-08-24T06:18:45;8.95;;;6.13;;
52534;SDS011;38443;53.164;5.802;2023-08-24T06:21:11;10.20;;;6.28;;
52534;SDS011;38443;53.164;5.802;2023-08-24T06:23:36;12.05;;;6.43;;
52534;SDS011;38443;53.164;5.802;2023-08-24T06:26:03;10.77;;;5.50;;
52534;SDS011;38443;53.164;5.802;2023-08-24T06:28:29;10.20;;;6.10;;
52534;SDS011;38443;53.164;5.802;2023-08-24T06:30:55;8.32;;;5.82;;
52534;SDS011;38443;53.164;5.802;2023-08-24T06:33:20;9.32;;;6.15;;
52534;SDS011;38443;53.164;5.802;2023-08-24T06:35:45;9.98;;;5.72;;
52534;SDS011;38443;53.164;5.802;2023-08-24T06:38:11;10.20;;;6.13;;
52534;SDS011;38443;53.164;5.802;2023-08-24T06:40:36;7.15;;;5.05;;
52534;SDS011;38443;53.164;5.802;2023-08-24T06:43:02;8.10;;;4.82;;
52534;SDS011;38443;53.164;5.802;2023-08-24T06:45:27;8.27;;;4.93;;
52534;SDS011;38443;53.164;5.802;2023-08-24T06:47:52;8.57;;;4.90;;
52534;SDS011;38443;53.164;5.802;2023-08-24T06:50:18;11.70;;;4.90;;
52534;SDS011;38443;53.164;5.802;2023-08-24T06:52:44;8.13;;;4.30;;
52534;SDS011;38443;53.164;5.802;2023-08-24T06:55:10;6.55;;;4.35;;
52534;SDS011;38443;53.164;5.802;2023-08-24T06:57:36;4.93;;;3.78;;
52534;SDS011;38443;53.164;5.802;2023-08-24T07:00:02;5.38;;;3.88;;
52534;SDS011;38443;53.164;5.802;2023-08-24T07:02:32;5.75;;;3.63;;
52534;SDS011;38443;53.164;5.802;2023-08-24T07:04:58;6.10;;;3.55;;
52534;SDS011;38443;53.164;5.802;2023-08-24T07:07:24;8.00;;;3.85;;
52534;SDS011;38443;53.164;5.802;2023-08-24T07:09:50;6.00;;;3.25;;
52534;SDS011;38443;53.164;5.802;2023-08-24T07:12:15;4.97;;;3.10;;
52534;SDS011;38443;53.164;5.802;2023-08-24T07:14:41;5.53;;;3.10;;
52534;SDS011;38443;53.164;5.802;2023-08-24T07:17:06;4.30;;;3.15;;
52534;SDS011;38443;53.164;5.802;2023-08-24T07:19:31;3.85;;;3.08;;
52534;SDS011;38443;53.164;5.802;2023-08-24T07:21:57;5.00;;;3.20;;
52534;SDS011;38443;53.164;5.802;2023-08-24T07:24:22;3.63;;;2.80;;
52534;SDS011;38443;53.164;5.802;2023-08-24T07:26:51;3.45;;;2.67;;
52534;SDS011;38443;53.164;5.802;2023-08-24T07:29:17;4.20;;;2.53;;
52534;SDS011;38443;53.164;5.802;2023-08-24T07:31:43;7.80;;;2.80;;
52534;SDS011;38443;53.164;5.802;2023-08-24T07:34:08;4.07;;;2.67;;
52534;SDS011;38443;53.164;5.802;2023-08-24T07:36:33;5.38;;;2.53;;
52534;SDS011;38443;53.164;5.802;2023-08-24T07:38:59;4.45;;;2.88;;
52534;SDS011;38443;53.164;5.802;2023-08-24T07:41:24;4.28;;;2.60;;
52534;SDS011;38443;53.164;5.802;2023-08-24T07:43:49;3.35;;;2.20;;
52534;SDS011;38443;53.164;5.802;2023-08-24T07:46:15;4.32;;;2.63;;
52534;SDS011;38443;53.164;5.802;2023-08-24T07:48:40;4.53;;;2.70;;
52534;SDS011;38443;53.164;5.802;2023-08-24T07:51:06;4.22;;;2.45;;
52534;SDS011;38443;53.164;5.802;2023-08-24T07:53:32;3.40;;;2.33;;
52534;SDS011;38443;53.164;5.802;2023-08-24T07:55:58;4.18;;;2.35;;
52534;SDS011;38443;53.164;5.802;2023-08-24T07:58:24;2.55;;;2.33;;
52534;SDS011;38443;53.164;5.802;2023-08-24T08:00:50;4.93;;;2.60;;
52534;SDS011;38443;53.164;5.802;2023-08-24T08:03:19;5.40;;;2.13;;
52534;SDS011;38443;53.164;5.802;2023-08-24T08:05:45;3.15;;;2.33;;
52534;SDS011;38443;53.164;5.802;2023-08-24T08:08:11;4.63;;;2.70;;
52534;SDS011;38443;53.164;5.802;2023-08-24T08:10:38;4.43;;;2.83;;
52534;SDS011;38443;53.164;5.802;2023-08-24T08:13:03;3.85;;;3.13;;
52534;SDS011;38443;53.164;5.802;2023-08-24T08:15:28;6.40;;;3.00;;
52534;SDS011;38443;53.164;5.802;2023-08-24T08:17:53;5.95;;;3.30;;
52534;SDS011;38443;53.164;5.802;2023-08-24T08:20:19;4.60;;;3.30;;
52534;SDS011;38443;53.164;5.802;2023-08-24T08:22:44;6.22;;;3.63;;
52534;SDS011;38443;53.164;5.802;2023-08-24T08:25:10;7.32;;;4.18;;
52534;SDS011;38443;53.164;5.802;2023-08-24T08:27:37;8.68;;;4.57;;
52534;SDS011;38443;53.164;5.802;2023-08-24T08:30:02;9.25;;;4.63;;
52534;SDS011;38443;53.164;5.802;2023-08-24T08:32:30;8.52;;;5.00;;
52534;SDS011;38443;53.164;5.802;2023-08-24T08:34:55;8.80;;;4.72;;
52534;SDS011;38443;53.164;5.802;2023-08-24T08:37:25;9.07;;;4.88;;
52534;SDS011;38443;53.164;5.802;2023-08-24T08:39:50;7.70;;;4.78;;
52534;SDS011;38443;53.164;5.802;2023-08-24T08:42:15;7.50;;;5.40;;
52534;SDS011;38443;53.164;5.802;2023-08-24T08:44:41;9.38;;;5.38;;
52534;SDS011;38443;53.164;5.802;2023-08-24T08:47:10;7.95;;;5.40;;
52534;SDS011;38443;53.164;5.802;2023-08-24T08:49:37;6.82;;;5.03;;
52534;SDS011;38443;53.164;5.802;2023-08-24T08:52:08;9.77;;;5.10;;
52534;SDS011;38443;53.164;5.802;2023-08-24T08:54:34;10.00;;;5.38;;
52534;SDS011;38443;53.164;5.802;2023-08-24T08:56:59;12.27;;;5.18;;
52534;SDS011;38443;53.164;5.802;2023-08-24T08:59:26;8.77;;;5.03;;
52534;SDS011;38443;53.164;5.802;2023-08-24T09:01:55;10.02;;;5.65;;
52534;SDS011;38443;53.164;5.802;2023-08-24T09:04:22;7.53;;;5.00;;
52534;SDS011;38443;53.164;5.802;2023-08-24T09:06:49;6.40;;;4.28;;
52534;SDS011;38443;53.164;5.802;2023-08-24T09:09:15;7.85;;;4.93;;
52534;SDS011;38443;53.164;5.802;2023-08-24T09:11:41;7.95;;;5.00;;
52534;SDS011;38443;53.164;5.802;2023-08-24T09:14:07;8.50;;;4.70;;
52534;SDS011;38443;53.164;5.802;2023-08-24T09:16:33;10.45;;;5.53;;
52534;SDS011;38443;53.164;5.802;2023-08-24T09:18:58;6.60;;;4.45;;
52534;SDS011;38443;53.164;5.802;2023-08-24T09:21:23;8.45;;;5.05;;
52534;SDS011;38443;53.164;5.802;2023-08-24T09:23:54;8.00;;;4.80;;
52534;SDS011;38443;53.164;5.802;2023-08-24T09:26:29;10.95;;;5.00;;
52534;SDS011;38443;53.164;5.802;2023-08-24T09:29:14;8.60;;;4.65;;
52534;SDS011;38443;53.164;5.802;2023-08-24T09:31:40;7.57;;;5.35;;
52534;SDS011;38443;53.164;5.802;2023-08-24T09:34:09;8.88;;;5.22;;
52534;SDS011;38443;53.164;5.802;2023-08-24T09:36:34;9.57;;;5.30;;
52534;SDS011;38443;53.164;5.802;2023-08-24T09:39:01;9.18;;;5.05;;
52534;SDS011;38443;53.164;5.802;2023-08-24T09:41:45;7.60;;;4.45;;
52534;SDS011;38443;53.164;5.802;2023-08-24T09:44:12;6.85;;;5.05;;
52534;SDS011;38443;53.164;5.802;2023-08-24T09:46:38;7.18;;;4.85;;
52534;SDS011;38443;53.164;5.802;2023-08-24T09:49:05;11.05;;;5.43;;
52534;SDS011;38443;53.164;5.802;2023-08-24T09:51:32;10.25;;;5.43;;
52534;SDS011;38443;53.164;5.802;2023-08-24T09:54:04;7.90;;;4.78;;
52534;SDS011;38443;53.164;5.802;2023-08-24T09:56:37;8.48;;;4.57;;
52534;SDS011;38443;53.164;5.802;2023-08-24T09:59:11;8.25;;;6.07;;
52534;SDS011;38443;53.164;5.802;2023-08-24T10:01:43;8.07;;;5.03;;
52534;SDS011;38443;53.164;5.802;2023-08-24T10:04:10;10.90;;;5.35;;
52534;SDS011;38443;53.164;5.802;2023-08-24T10:06:38;6.97;;;5.00;;
52534;SDS011;38443;53.164;5.802;2023-08-24T10:09:07;7.10;;;4.60;;
52534;SDS011;38443;53.164;5.802;2023-08-24T10:11:39;8.77;;;5.97;;
52534;SDS011;38443;53.164;5.802;2023-08-24T10:14:09;8.68;;;5.60;;
52534;SDS011;38443;53.164;5.802;2023-08-24T10:16:40;9.23;;;5.20;;
52534;SDS011;38443;53.164;5.802;2023-08-24T10:19:07;10.45;;;5.60;;
52534;SDS011;38443;53.164;5.802;2023-08-24T10:21:33;10.75;;;6.10;;
52534;SDS011;38443;53.164;5.802;2023-08-24T10:24:02;10.45;;;5.55;;
52534;SDS011;38443;53.164;5.802;2023-08-24T10:26:27;7.45;;;5.68;;
52534;SDS011;38443;53.164;5.802;2023-08-24T10:28:53;8.05;;;5.53;;
52534;SDS011;38443;53.164;5.802;2023-08-24T10:31:20;9.65;;;6.13;;
52534;SDS011;38443;53.164;5.802;2023-08-24T10:33:46;8.40;;;5.60;;
52534;SDS011;38443;53.164;5.802;2023-08-24T10:36:13;10.48;;;6.28;;
52534;SDS011;38443;53.164;5.802;2023-08-24T10:38:40;11.38;;;5.95;;
52534;SDS011;38443;53.164;5.802;2023-08-24T10:41:09;12.63;;;6.53;;
52534;SDS011;38443;53.164;5.802;2023-08-24T10:43:39;8.98;;;6.07;;
52534;SDS011;38443;53.164;5.802;2023-08-24T10:46:12;12.18;;;6.82;;
52534;SDS011;38443;53.164;5.802;2023-08-24T10:53:42;13.13;;;6.68;;
52534;SDS011;38443;53.164;5.802;2023-08-24T10:56:13;11.10;;;6.65;;
52534;SDS011;38443;53.164;5.802;2023-08-24T10:58:43;14.48;;;7.97;;
52534;SDS011;38443;53.164;5.802;2023-08-24T11:01:19;11.63;;;6.90;;
52534;SDS011;38443;53.164;5.802;2023-08-24T11:03:50;12.85;;;7.20;;
52534;SDS011;38443;53.164;5.802;2023-08-24T11:06:23;10.00;;;7.05;;
52534;SDS011;38443;53.164;5.802;2023-08-24T11:11:43;13.27;;;7.55;;
52534;SDS011;38443;53.164;5.802;2023-08-24T11:14:20;14.18;;;8.57;;
52534;SDS011;38443;53.164;5.802;2023-08-24T11:16:51;12.55;;;7.90;;
52534;SDS011;38443;53.164;5.802;2023-08-24T11:19:17;14.25;;;7.70;;
52534;SDS011;38443;53.164;5.802;2023-08-24T11:21:43;14.90;;;8.07;;
52534;SDS011;38443;53.164;5.802;2023-08-24T11:24:10;15.15;;;7.50;;
52534;SDS011;38443;53.164;5.802;2023-08-24T11:26:42;14.10;;;7.55;;
52534;SDS011;38443;53.164;5.802;2023-08-24T11:29:09;13.75;;;8.05;;
52534;SDS011;38443;53.164;5.802;2023-08-24T11:31:35;12.60;;;7.85;;
52534;SDS011;38443;53.164;5.802;2023-08-24T11:34:01;13.35;;;8.50;;
52534;SDS011;38443;53.164;5.802;2023-08-24T11:36:28;18.13;;;10.18;;
52534;SDS011;38443;53.164;5.802;2023-08-24T11:38:56;14.45;;;8.30;;
52534;SDS011;38443;53.164;5.802;2023-08-24T11:41:22;14.30;;;8.40;;
52534;SDS011;38443;53.164;5.802;2023-08-24T11:43:48;12.15;;;8.13;;
52534;SDS011;38443;53.164;5.802;2023-08-24T11:46:19;12.85;;;8.15;;
52534;SDS011;38443;53.164;5.802;2023-08-24T11:48:44;12.30;;;8.70;;
52534;SDS011;38443;53.164;5.802;2023-08-24T11:51:11;15.63;;;9.32;;
52534;SDS011;38443;53.164;5.802;2023-08-24T11:53:44;14.38;;;8.52;;
52534;SDS011;38443;53.164;5.802;2023-08-24T11:56:12;14.13;;;8.75;;
52534;SDS011;38443;53.164;5.802;2023-08-24T11:58:41;17.05;;;8.38;;
52534;SDS011;38443;53.164;5.802;2023-08-24T12:01:07;14.40;;;8.68;;
52534;SDS011;38443;53.164;5.802;2023-08-24T12:03:34;15.05;;;9.77;;
52534;SDS011;38443;53.164;5.802;2023-08-24T12:06:01;16.75;;;9.27;;
52534;SDS011;38443;53.164;5.802;2023-08-24T12:08:28;15.07;;;9.77;;
52534;SDS011;38443;53.164;5.802;2023-08-24T12:10:54;14.93;;;9.10;;
52534;SDS011;38443;53.164;5.802;2023-08-24T12:13:19;18.45;;;9.10;;
52534;SDS011;38443;53.164;5.802;2023-08-24T12:15:45;14.05;;;9.02;;
52534;SDS011;38443;53.164;5.802;2023-08-24T12:18:12;19.85;;;9.82;;
52534;SDS011;38443;53.164;5.802;2023-08-24T12:20:42;15.80;;;9.38;;
52534;SDS011;38443;53.164;5.802;2023-08-24T12:23:09;17.92;;;9.38;;
52534;SDS011;38443;53.164;5.802;2023-08-24T12:25:36;18.73;;;10.20;;
52534;SDS011;38443;53.164;5.802;2023-08-24T12:28:11;14.90;;;9.90;;
52534;SDS011;38443;53.164;5.802;2023-08-24T12:33:20;13.25;;;9.93;;
52534;SDS011;38443;53.164;5.802;2023-08-24T12:35:46;16.38;;;10.93;;
52534;SDS011;38443;53.164;5.802;2023-08-24T12:38:11;20.65;;;11.38;;
52534;SDS011;38443;53.164;5.802;2023-08-24T12:40:37;16.45;;;11.10;;
52534;SDS011;38443;53.164;5.802;2023-08-24T12:43:02;20.55;;;12.10;;
52534;SDS011;38443;53.164;5.802;2023-08-24T12:45:28;18.48;;;12.90;;
52534;SDS011;38443;53.164;5.802;2023-08-24T12:47:53;18.15;;;12.07;;
52534;SDS011;38443;53.164;5.802;2023-08-24T12:50:19;19.83;;;12.68;;
52534;SDS011;38443;53.164;5.802;2023-08-24T12:52:44;20.65;;;12.20;;
52534;SDS011;38443;53.164;5.802;2023-08-24T12:55:09;18.38;;;12.88;;
52534;SDS011;38443;53.164;5.802;2023-08-24T12:57:35;18.38;;;12.27;;
52534;SDS011;38443;53.164;5.802;2023-08-24T13:00:00;19.92;;;12.02;;
52534;SDS011;38443;53.164;5.802;2023-08-24T13:02:26;17.42;;;12.15;;
52534;SDS011;38443;53.164;5.802;2023-08-24T13:04:51;17.67;;;11.82;;
52534;SDS011;38443;53.164;5.802;2023-08-24T13:07:17;19.55;;;12.93;;
52534;SDS011;38443;53.164;5.802;2023-08-24T13:09:42;20.33;;;11.07;;
52534;SDS011;38443;53.164;5.802;2023-08-24T13:12:07;14.45;;;10.15;;
52534;SDS011;38443;53.164;5.802;2023-08-24T13:14:33;15.13;;;10.43;;
52534;SDS011;38443;53.164;5.802;2023-08-24T13:16:58;15.90;;;10.70;;
52534;SDS011;38443;53.164;5.802;2023-08-24T13:19:23;19.35;;;12.45;;
52534;SDS011;38443;53.164;5.802;2023-08-24T13:21:49;17.50;;;11.50;;
52534;SDS011;38443;53.164;5.802;2023-08-24T13:24:14;17.95;;;11.55;;
52534;SDS011;38443;53.164;5.802;2023-08-24T13:26:39;18.92;;;11.60;;
52534;SDS011;38443;53.164;5.802;2023-08-24T13:29:04;17.70;;;10.80;;
52534;SDS011;38443;53.164;5.802;2023-08-24T13:31:30;18.40;;;12.25;;
52534;SDS011;38443;53.164;5.802;2023-08-24T13:33:55;17.63;;;12.00;;
52534;SDS011;38443;53.164;5.802;2023-08-24T13:36:21;20.20;;;12.60;;
52534;SDS011;38443;53.164;5.802;2023-08-24T13:38:46;17.25;;;11.40;;
52534;SDS011;38443;53.164;5.802;2023-08-24T13:41:12;19.17;;;11.90;;
52534;SDS011;38443;53.164;5.802;2023-08-24T13:43:37;14.60;;;10.70;;
52534;SDS011;38443;53.164;5.802;2023-08-24T13:46:04;16.77;;;11.82;;
52534;SDS011;38443;53.164;5.802;2023-08-24T13:48:30;16.25;;;11.48;;
52534;SDS011;38443;53.164;5.802;2023-08-24T13:50:58;16.48;;;11.65;;
52534;SDS011;38443;53.164;5.802;2023-08-24T13:53:24;18.15;;;11.10;;
52534;SDS011;38443;53.164;5.802;2023-08-24T13:55:49;18.15;;;11.45;;
52534;SDS011;38443;53.164;5.802;2023-08-24T13:58:14;18.40;;;11.20;;
52534;SDS011;38443;53.164;5.802;2023-08-24T14:00:40;17.10;;;11.25;;
52534;SDS011;38443;53.164;5.802;2023-08-24T14:03:05;16.33;;;11.40;;
52534;SDS011;38443;53.164;5.802;2023-08-24T14:05:31;19.35;;;10.35;;
52534;SDS011;38443;53.164;5.802;2023-08-24T14:07:56;15.35;;;10.45;;
52534;SDS011;38443;53.164;5.802;2023-08-24T14:10:21;15.88;;;10.73;;
52534;SDS011;38443;53.164;5.802;2023-08-24T14:12:47;15.82;;;10.65;;
52534;SDS011;38443;53.164;5.802;2023-08-24T14:15:12;17.23;;;9.73;;
52534;SDS011;38443;53.164;5.802;2023-08-24T14:17:38;17.35;;;11.02;;
52534;SDS011;38443;53.164;5.802;2023-08-24T14:20:04;17.65;;;11.15;;
52534;SDS011;38443;53.164;5.802;2023-08-24T14:22:29;16.23;;;11.15;;
52534;SDS011;38443;53.164;5.802;2023-08-24T14:24:55;14.95;;;10.48;;
52534;SDS011;38443;53.164;5.802;2023-08-24T14:27:20;18.25;;;11.07;;
52534;SDS011;38443;53.164;5.802;2023-08-24T14:29:46;17.60;;;11.30;;
52534;SDS011;38443;53.164;5.802;2023-08-24T14:32:11;16.02;;;11.40;;
52534;SDS011;38443;53.164;5.802;2023-08-24T14:34:36;17.98;;;11.82;;
52534;SDS011;38443;53.164;5.802;2023-08-24T14:37:02;16.15;;;11.35;;
52534;SDS011;38443;53.164;5.802;2023-08-24T14:39:28;17.80;;;12.50;;
52534;SDS011;38443;53.164;5.802;2023-08-24T14:41:53;22.08;;;13.70;;
52534;SDS011;38443;53.164;5.802;2023-08-24T14:44:18;18.80;;;12.50;;
52534;SDS011;38443;53.164;5.802;2023-08-24T14:46:44;20.77;;;13.13;;
52534;SDS011;38443;53.164;5.802;2023-08-24T14:49:09;18.58;;;12.82;;